Time;durP1;ratioP1;P1;durP2;ratioP2;P2;SDS_P1;SDS_P2;PMS_P1;PMS_P2;Temp;Humidity;BMP_temperature;BMP_pressure;BME280_temperature;BME280_humidity;BME280_pressure;Samples;Min_cycle;Max_cycle;Signal;HPM_P1;HPM_P2
2024/01/11 00:00:35;;;;;;;118.77;61.60;;;-0.30;44.60;;;;;;5003323;28;20625;-85
2024/01/11 00:03:01;;;;;;;125.80;59.37;;;-0.20;44.80;;;;;;5010538;28;20262;-86
2024/01/11 00:05:26;;;;;;;113.03;57.83;;;-0.30;44.80;;;;;;5000895;28;20292;-86
2024/01/11 00:07:52;;;;;;;108.10;56.50;;;-0.20;45.40;;;;;;4995913;28;20654;-85
2024/01/11 00:10:18;;;;;;;114.30;57.57;;;-0.10;45.10;;;;;;4996348;28;20179;-85
2024/01/11 00:12:44;;;;;;;106.83;54.90;;;-0.20;45.00;;;;;;4996678;28;20280;-86
2024/01/11 00:15:09;;;;;;;111.90;56.57;;;-0.10;45.00;;;;;;4995302;28;20648;-85
2024/01/11 00:17:36;;;;;;;115.40;57.70;;;-0.20;44.80;;;;;;4995909;28;20182;-86
2024/01/11 00:20:02;;;;;;;126.27;59.07;;;-0.20;44.90;;;;;;5008813;28;20552;-86
2024/01/11 00:22:27;;;;;;;108.90;56.27;;;-0.30;44.90;;;;;;5004324;28;20189;-85
2024/01/11 00:24:53;;;;;;;109.73;55.93;;;-0.30;45.10;;;;;;4987214;28;20175;-87
2024/01/11 00:27:18;;;;;;;111.47;54.57;;;-0.30;45.10;;;;;;5012665;28;21280;-85
2024/01/11 00:29:44;;;;;;;116.13;56.47;;;-0.40;45.10;;;;;;4995456;28;20263;-85
2024/01/11 00:32:10;;;;;;;115.77;57.13;;;-0.30;45.30;;;;;;4995855;28;20202;-85
2024/01/11 00:34:35;;;;;;;114.20;55.13;;;-0.30;45.40;;;;;;4994222;28;20184;-85
2024/01/11 00:37:01;;;;;;;109.20;56.13;;;-0.20;45.40;;;;;;4994755;28;20239;-85
2024/01/11 00:39:27;;;;;;;118.13;57.40;;;-0.10;45.40;;;;;;4988581;28;20176;-84
2024/01/11 00:41:53;;;;;;;104.97;56.10;;;-0.10;45.30;;;;;;4994253;28;20237;-86
2024/01/11 00:44:19;;;;;;;110.37;55.77;;;-0.10;45.20;;;;;;5009887;28;20238;-85
2024/01/11 00:46:44;;;;;;;116.27;57.03;;;0.10;45.30;;;;;;5008867;28;20267;-84
2024/01/11 00:49:10;;;;;;;115.83;58.03;;;-0.10;45.20;;;;;;5000083;28;20211;-86
2024/01/11 00:51:36;;;;;;;108.20;55.73;;;-0.10;45.20;;;;;;4990593;28;20186;-85
2024/01/11 00:54:01;;;;;;;116.20;58.00;;;0.00;45.20;;;;;;4995059;28;20189;-85
2024/01/11 00:56:27;;;;;;;117.90;56.07;;;0.00;45.30;;;;;;5018933;28;20188;-85
2024/01/11 00:58:53;;;;;;;124.37;61.60;;;0.00;45.30;;;;;;5008376;28;20497;-85
2024/01/11 01:01:18;;;;;;;111.57;58.63;;;0.10;45.40;;;;;;5011908;28;20193;-86
2024/01/11 01:03:44;;;;;;;120.77;59.23;;;0.10;45.20;;;;;;4994778;28;20210;-85
2024/01/11 01:06:10;;;;;;;114.90;58.67;;;0.10;45.20;;;;;;5012106;28;20262;-85
2024/01/11 01:08:35;;;;;;;117.43;58.70;;;0.20;45.30;;;;;;5012971;28;20262;-85
2024/01/11 01:11:01;;;;;;;117.57;60.40;;;0.10;45.30;;;;;;5018833;28;20273;-85
2024/01/11 01:13:27;;;;;;;112.50;56.40;;;0.10;45.20;;;;;;5000525;28;20571;-85
2024/01/11 01:15:52;;;;;;;115.20;57.50;;;0.00;45.20;;;;;;5007139;28;20593;-85
2024/01/11 01:18:18;;;;;;;117.10;57.40;;;0.00;45.30;;;;;;5006256;28;20185;-85
2024/01/11 01:20:44;;;;;;;109.93;56.43;;;-0.10;45.30;;;;;;5004237;28;20610;-85
2024/01/11 01:23:09;;;;;;;109.23;56.00;;;0.00;45.50;;;;;;5013360;28;20175;-85
2024/01/11 01:25:35;;;;;;;114.90;57.73;;;0.00;45.60;;;;;;5004625;28;20226;-85
2024/01/11 01:28:00;;;;;;;122.67;58.00;;;0.10;45.70;;;;;;5012469;28;20172;-85
2024/01/11 01:30:27;;;;;;;117.27;56.67;;;0.10;45.60;;;;;;4997516;28;20622;-85
2024/01/11 01:32:53;;;;;;;115.73;59.03;;;0.10;45.50;;;;;;5010116;28;20178;-85
2024/01/11 01:35:19;;;;;;;127.60;61.00;;;0.00;45.30;;;;;;4994312;28;20246;-85
2024/01/11 01:37:44;;;;;;;116.60;56.93;;;0.00;46.00;;;;;;4993127;28;20253;-85
2024/01/11 01:40:11;;;;;;;121.13;59.07;;;0.00;45.50;;;;;;4995908;28;20191;-84
2024/01/11 01:42:42;;;;;;;110.83;55.90;;;0.10;46.20;;;;;;4982753;28;20187;-85
2024/01/11 01:45:08;;;;;;;118.27;56.10;;;0.10;45.60;;;;;;5010660;28;20286;-85
2024/01/11 01:47:34;;;;;;;105.57;53.63;;;0.10;45.50;;;;;;5011903;28;20203;-85
2024/01/11 01:49:59;;;;;;;110.10;54.43;;;0.00;45.40;;;;;;4993257;28;20213;-85
2024/01/11 01:52:25;;;;;;;110.80;55.03;;;-0.10;45.50;;;;;;5004382;28;20540;-85
2024/01/11 01:54:51;;;;;;;102.70;53.60;;;0.00;45.60;;;;;;5011096;28;20206;-85
2024/01/11 01:57:19;;;;;;;102.70;53.87;;;0.10;45.80;;;;;;4998288;28;20187;-85
2024/01/11 01:59:45;;;;;;;104.10;55.57;;;0.00;45.70;;;;;;4994920;28;20189;-84
2024/01/11 02:02:12;;;;;;;103.70;53.73;;;0.00;45.80;;;;;;4995599;28;20184;-85
2024/01/11 02:04:38;;;;;;;108.40;52.80;;;0.10;45.70;;;;;;4991787;28;20192;-85
2024/01/11 02:07:06;;;;;;;106.90;54.00;;;0.10;45.80;;;;;;4994136;28;20214;-85
2024/01/11 02:09:31;;;;;;;109.63;55.43;;;0.00;45.60;;;;;;5013531;28;20215;-85
2024/01/11 02:11:58;;;;;;;115.50;56.23;;;0.00;45.70;;;;;;5011687;28;20215;-86
2024/01/11 02:14:24;;;;;;;121.07;58.47;;;0.00;45.70;;;;;;5011970;28;20214;-85
2024/01/11 02:16:50;;;;;;;124.87;58.93;;;0.00;45.70;;;;;;5010998;28;20672;-85
2024/01/11 02:19:18;;;;;;;119.57;58.83;;;0.00;45.90;;;;;;5025457;28;20202;-85
2024/01/11 02:21:48;;;;;;;121.30;58.60;;;0.00;45.80;;;;;;5009446;28;20233;-85
2024/01/11 02:24:13;;;;;;;120.50;56.53;;;0.00;45.90;;;;;;5004345;28;20188;-84
2024/01/11 02:26:59;;;;;;;121.10;58.37;;;0.00;45.80;;;;;;4988341;28;20309;-84
2024/01/11 02:29:25;;;;;;;134.27;61.90;;;0.00;45.90;;;;;;4991983;28;20192;-85
2024/01/11 02:31:50;;;;;;;124.37;58.40;;;0.10;45.90;;;;;;5007559;28;20246;-85
2024/01/11 02:34:16;;;;;;;139.43;62.73;;;0.10;46.00;;;;;;4998341;28;20663;-85
2024/01/11 02:36:42;;;;;;;122.57;59.90;;;0.20;46.00;;;;;;5013617;28;20271;-84
2024/01/11 02:39:08;;;;;;;114.97;56.47;;;0.20;45.80;;;;;;5021889;28;20183;-85
2024/01/11 02:41:35;;;;;;;127.53;58.93;;;0.10;45.70;;;;;;4997723;28;20200;-85
2024/01/11 02:44:01;;;;;;;119.93;57.37;;;0.10;45.80;;;;;;5007684;28;20223;-86
2024/01/11 02:46:27;;;;;;;118.73;58.03;;;0.10;46.00;;;;;;5014665;28;20658;-85
2024/01/11 02:48:52;;;;;;;123.40;57.60;;;0.30;46.10;;;;;;5004909;28;20275;-85
2024/01/11 02:51:18;;;;;;;130.33;60.07;;;0.20;46.00;;;;;;5017721;28;20176;-85
2024/01/11 02:53:43;;;;;;;112.47;56.10;;;0.10;45.80;;;;;;4996941;28;20195;-84
2024/01/11 02:56:09;;;;;;;104.83;55.57;;;0.10;45.90;;;;;;5013966;28;20656;-84
2024/01/11 02:58:34;;;;;;;106.53;54.90;;;0.10;46.00;;;;;;4997535;28;20188;-85
2024/01/11 03:01:00;;;;;;;122.70;57.73;;;0.00;45.90;;;;;;4995926;28;20187;-86
2024/01/11 03:03:41;;;;;;;123.13;57.03;;;0.00;46.00;;;;;;5013464;28;20261;-86
2024/01/11 03:06:07;;;;;;;97.17;50.73;;;0.00;46.10;;;;;;4996691;28;20219;-85
2024/01/11 03:08:33;;;;;;;102.07;53.97;;;0.00;46.20;;;;;;5013391;28;20207;-84
2024/01/11 03:10:59;;;;;;;114.20;55.30;;;0.00;46.40;;;;;;5010740;28;20647;-85
2024/01/11 03:13:24;;;;;;;104.47;51.53;;;0.00;46.40;;;;;;4993934;28;20175;-84
2024/01/11 03:15:50;;;;;;;102.50;52.40;;;0.10;46.60;;;;;;5002397;28;20194;-84
2024/01/11 03:18:15;;;;;;;107.40;53.33;;;0.10;46.60;;;;;;5017306;28;20179;-84
2024/01/11 03:20:41;;;;;;;105.93;53.00;;;0.10;46.60;;;;;;5006392;28;20239;-84
2024/01/11 03:23:07;;;;;;;104.27;52.33;;;0.10;46.70;;;;;;4995784;28;20180;-84
2024/01/11 03:25:32;;;;;;;100.20;50.90;;;0.10;46.90;;;;;;5003573;28;20186;-84
2024/01/11 03:27:58;;;;;;;93.53;48.57;;;0.20;47.00;;;;;;5013403;28;20177;-84
2024/01/11 03:30:24;;;;;;;99.47;48.73;;;0.20;46.90;;;;;;5012151;28;20204;-85
2024/01/11 03:32:50;;;;;;;94.73;47.57;;;0.30;47.20;;;;;;5014139;28;20239;-85
2024/01/11 03:35:16;;;;;;;93.90;47.63;;;0.20;47.10;;;;;;4994044;28;20208;-85
2024/01/11 03:37:41;;;;;;;86.23;46.37;;;0.20;47.20;;;;;;4996948;28;20208;-84
2024/01/11 03:40:07;;;;;;;89.80;47.10;;;0.20;47.30;;;;;;4997527;28;20185;-84
2024/01/11 03:42:33;;;;;;;85.00;43.63;;;0.20;47.40;;;;;;4999729;28;20186;-84
2024/01/11 03:44:58;;;;;;;90.77;44.57;;;0.20;47.60;;;;;;5014644;28;20226;-85
2024/01/11 03:47:24;;;;;;;87.17;44.03;;;0.20;47.50;;;;;;5012255;28;20211;-84
2024/01/11 03:49:50;;;;;;;77.33;42.50;;;0.20;47.60;;;;;;4995465;28;20171;-84
2024/01/11 03:52:15;;;;;;;82.23;42.90;;;0.20;47.70;;;;;;4995832;28;20200;-85
2024/01/11 03:54:41;;;;;;;84.67;44.57;;;0.20;47.80;;;;;;4989659;28;20184;-85
2024/01/11 03:57:06;;;;;;;83.97;42.90;;;0.30;48.00;;;;;;4995117;28;20654;-85
2024/01/11 03:59:32;;;;;;;86.10;44.10;;;0.30;48.00;;;;;;5013956;28;20178;-85
2024/01/11 04:01:59;;;;;;;81.83;42.63;;;0.20;48.00;;;;;;5013262;28;20651;-87
2024/01/11 04:04:24;;;;;;;79.17;42.53;;;0.10;48.20;;;;;;4996140;28;20192;-85
2024/01/11 04:06:52;;;;;;;83.37;42.23;;;0.20;48.30;;;;;;5010556;28;20208;-85
2024/01/11 04:09:18;;;;;;;82.53;43.03;;;0.10;48.40;;;;;;4998897;28;20751;-85
2024/01/11 04:11:43;;;;;;;85.30;43.03;;;0.10;48.60;;;;;;4995504;28;20183;-85
2024/01/11 04:14:21;;;;;;;81.00;43.10;;;0.00;48.70;;;;;;4991427;28;20817;-84
2024/01/11 04:16:47;;;;;;;81.20;41.87;;;0.00;48.90;;;;;;4994895;28;20233;-87
2024/01/11 04:19:12;;;;;;;84.87;42.00;;;0.10;49.00;;;;;;4991587;28;20201;-87
2024/01/11 04:21:38;;;;;;;87.00;42.67;;;0.10;49.00;;;;;;5011383;28;20193;-86
2024/01/11 04:24:06;;;;;;;77.73;40.93;;;0.10;49.10;;;;;;5004663;28;20190;-86
2024/01/11 04:26:31;;;;;;;80.27;41.17;;;0.10;49.20;;;;;;5012556;28;20667;-85
2024/01/11 04:28:59;;;;;;;79.47;41.37;;;0.10;49.30;;;;;;4997085;28;20183;-87
2024/01/11 04:31:25;;;;;;;82.30;41.73;;;0.10;49.40;;;;;;5003285;28;20182;-86
2024/01/11 04:33:51;;;;;;;80.90;39.80;;;0.10;49.40;;;;;;5009538;28;20186;-86
2024/01/11 04:36:17;;;;;;;81.03;40.27;;;0.10;49.50;;;;;;4995817;28;20599;-87
2024/01/11 04:38:44;;;;;;;74.07;38.07;;;0.10;49.50;;;;;;5019790;28;20200;-87
2024/01/11 04:41:10;;;;;;;78.93;38.87;;;0.10;49.50;;;;;;5008961;28;20180;-86
2024/01/11 04:43:40;;;;;;;70.53;38.20;;;0.10;49.60;;;;;;5012183;28;20174;-86
2024/01/11 04:46:17;;;;;;;75.73;38.90;;;0.10;49.80;;;;;;4974436;28;20226;-85
2024/01/11 04:48:43;;;;;;;75.83;38.20;;;0.10;50.00;;;;;;4976025;28;20175;-84
2024/01/11 04:51:09;;;;;;;73.30;37.77;;;0.00;50.00;;;;;;4966050;28;20646;-87
2024/01/11 04:53:41;;;;;;;75.37;38.73;;;0.20;50.20;;;;;;4994946;28;20194;-86
2024/01/11 04:56:08;;;;;;;82.13;37.80;;;0.10;50.10;;;;;;4974704;28;20186;-86
2024/01/11 04:58:35;;;;;;;69.87;37.73;;;0.20;50.30;;;;;;4973197;28;20227;-84
2024/01/11 05:01:00;;;;;;;71.43;37.77;;;0.20;50.20;;;;;;4991251;28;20192;-85
2024/01/11 05:03:28;;;;;;;71.60;38.53;;;0.20;50.50;;;;;;4991147;28;20721;-85
2024/01/11 05:05:57;;;;;;;80.17;39.20;;;0.20;50.40;;;;;;4996652;28;20680;-84
2024/01/11 05:08:23;;;;;;;80.77;39.50;;;0.20;50.50;;;;;;4974199;28;20269;-85
2024/01/11 05:10:49;;;;;;;77.07;37.90;;;0.10;50.60;;;;;;5002706;28;20179;-85
2024/01/11 05:13:58;;;;;;;84.77;39.87;;;0.10;50.80;;;;;;4984865;28;20248;-85
2024/01/11 05:16:26;;;;;;;80.23;39.80;;;0.00;51.00;;;;;;4984380;28;20181;-85
2024/01/11 05:18:53;;;;;;;78.00;39.00;;;0.10;51.30;;;;;;4974196;28;20184;-84
2024/01/11 05:21:19;;;;;;;70.27;37.30;;;0.10;51.40;;;;;;4987095;28;20192;-85
2024/01/11 05:23:45;;;;;;;69.00;36.27;;;0.20;51.60;;;;;;4974255;28;20441;-83
2024/01/11 05:26:13;;;;;;;79.93;37.60;;;0.10;51.60;;;;;;4981099;28;20217;-84
2024/01/11 05:28:39;;;;;;;67.50;35.80;;;0.10;51.80;;;;;;4973983;28;20186;-86
2024/01/11 05:31:07;;;;;;;75.13;36.13;;;0.00;51.90;;;;;;4986483;28;20197;-84
2024/01/11 05:33:33;;;;;;;71.40;35.90;;;0.10;52.20;;;;;;4970372;28;20192;-85
2024/01/11 05:35:59;;;;;;;69.00;34.77;;;0.20;52.70;;;;;;4974834;28;20180;-85
2024/01/11 05:38:24;;;;;;;65.70;33.63;;;0.10;52.80;;;;;;4973742;28;20932;-84
2024/01/11 05:40:50;;;;;;;68.07;33.17;;;-0.10;53.50;;;;;;4988489;28;20642;-84
2024/01/11 05:43:15;;;;;;;65.93;34.80;;;-0.10;54.10;;;;;;4974144;28;20204;-86
2024/01/11 05:45:41;;;;;;;74.20;35.87;;;-0.20;53.80;;;;;;4989178;28;20699;-84
2024/01/11 05:48:06;;;;;;;67.47;34.63;;;-0.20;53.80;;;;;;4993108;28;20219;-84
2024/01/11 05:50:32;;;;;;;65.70;33.57;;;-0.10;54.20;;;;;;5009968;28;20182;-85
2024/01/11 05:52:58;;;;;;;69.60;33.77;;;-0.20;55.30;;;;;;5011968;28;20187;-85
2024/01/11 05:55:23;;;;;;;63.53;31.33;;;-0.20;54.60;;;;;;4990405;28;20637;-84
2024/01/11 05:57:49;;;;;;;65.03;32.20;;;-0.10;55.10;;;;;;5009149;28;20591;-85
2024/01/11 06:00:22;;;;;;;62.80;30.70;;;-0.20;55.80;;;;;;4991209;28;20177;-84
2024/01/11 06:02:47;;;;;;;60.93;31.30;;;-0.40;56.00;;;;;;4990629;28;20198;-85
2024/01/11 06:05:13;;;;;;;60.40;30.33;;;-0.40;56.50;;;;;;5010550;28;20168;-86
2024/01/11 06:07:39;;;;;;;59.40;30.07;;;-0.40;56.80;;;;;;4993855;28;20587;-85
2024/01/11 06:10:05;;;;;;;53.97;28.80;;;-0.40;56.60;;;;;;4995587;28;20194;-85
2024/01/11 06:12:32;;;;;;;54.87;27.93;;;-0.40;56.80;;;;;;5002748;28;20225;-85
2024/01/11 06:14:58;;;;;;;52.53;27.90;;;-0.40;57.20;;;;;;4991212;28;20737;-85
2024/01/11 06:17:24;;;;;;;55.77;28.37;;;-0.30;57.00;;;;;;5008436;28;20190;-85
2024/01/11 06:19:49;;;;;;;54.47;27.77;;;-0.30;56.80;;;;;;4992943;28;20185;-86
2024/01/11 06:22:15;;;;;;;54.70;28.73;;;-0.30;56.40;;;;;;4993166;28;20624;-86
2024/01/11 06:24:41;;;;;;;48.43;27.03;;;-0.30;56.40;;;;;;5015295;28;20187;-86
2024/01/11 06:27:06;;;;;;;51.37;27.47;;;-0.20;57.00;;;;;;5000853;28;20203;-86
2024/01/11 06:29:32;;;;;;;51.27;27.73;;;-0.20;56.90;;;;;;5018114;28;20175;-86
2024/01/11 06:31:58;;;;;;;55.73;27.10;;;0.00;57.30;;;;;;4996376;28;20188;-87
2024/01/11 06:34:23;;;;;;;51.23;27.83;;;-0.20;56.70;;;;;;4992786;28;20278;-88
2024/01/11 06:36:49;;;;;;;54.87;28.20;;;-0.20;56.70;;;;;;4984110;28;20195;-86
2024/01/11 06:39:15;;;;;;;51.30;27.87;;;-0.10;57.20;;;;;;4992384;28;20195;-87
2024/01/11 06:41:40;;;;;;;49.70;26.70;;;-0.10;57.10;;;;;;4982577;28;20241;-87
2024/01/11 06:44:06;;;;;;;47.13;25.77;;;-0.20;56.80;;;;;;4991730;28;20596;-86
2024/01/11 06:46:31;;;;;;;49.20;24.93;;;-0.20;56.90;;;;;;4984550;28;20765;-88
2024/01/11 06:48:57;;;;;;;52.43;25.90;;;-0.20;57.20;;;;;;4983792;28;21082;-86
2024/01/11 06:51:23;;;;;;;46.57;25.17;;;-0.10;57.30;;;;;;5000022;28;20181;-86
2024/01/11 06:53:49;;;;;;;49.47;25.83;;;0.00;57.40;;;;;;4986462;28;20339;-88
2024/01/11 06:56:16;;;;;;;47.47;24.53;;;0.10;57.20;;;;;;4992467;28;20839;-88
2024/01/11 06:58:43;;;;;;;47.23;24.83;;;0.10;57.30;;;;;;4993275;28;20556;-86
2024/01/11 07:01:08;;;;;;;44.47;24.80;;;0.20;57.30;;;;;;4994332;28;20191;-86
2024/01/11 07:03:34;;;;;;;50.40;26.07;;;0.10;57.20;;;;;;5010923;28;20604;-87
2024/01/11 07:05:59;;;;;;;57.10;27.53;;;0.20;57.20;;;;;;4988823;28;20303;-87
2024/01/11 07:08:25;;;;;;;55.87;26.27;;;0.10;57.50;;;;;;4994042;28;20230;-88
2024/01/11 07:10:51;;;;;;;47.50;23.73;;;0.00;57.50;;;;;;5010195;28;20182;-86
2024/01/11 07:13:17;;;;;;;49.07;23.63;;;0.00;57.60;;;;;;4993191;28;20191;-87
2024/01/11 07:15:43;;;;;;;52.63;27.00;;;0.00;57.80;;;;;;4985192;28;20175;-87
2024/01/11 07:18:09;;;;;;;48.67;24.53;;;0.00;58.10;;;;;;4997170;28;20194;-88
2024/01/11 07:20:34;;;;;;;53.57;24.97;;;0.00;58.00;;;;;;5003783;28;20272;-88
2024/01/11 07:23:00;;;;;;;54.40;26.57;;;0.00;58.30;;;;;;4995095;28;20191;-88
2024/01/11 07:25:26;;;;;;;52.77;25.70;;;-0.10;58.30;;;;;;4990279;28;20194;-87
2024/01/11 07:27:51;;;;;;;55.80;27.03;;;0.00;58.40;;;;;;5010147;28;20211;-87
2024/01/11 07:30:20;;;;;;;54.40;26.63;;;0.00;58.60;;;;;;4996111;28;20175;-87
2024/01/11 07:32:46;;;;;;;50.80;25.53;;;0.10;58.70;;;;;;5009024;28;20188;-86
2024/01/11 07:35:12;;;;;;;49.50;26.10;;;0.00;58.70;;;;;;4991099;28;20186;-87
2024/01/11 07:37:38;;;;;;;56.73;25.47;;;0.00;58.60;;;;;;4995380;28;20273;-87
2024/01/11 07:40:09;;;;;;;55.23;27.47;;;0.00;58.90;;;;;;5005216;28;20657;-88
2024/01/11 07:42:35;;;;;;;55.50;28.10;;;0.10;59.00;;;;;;5009558;28;20226;-86
2024/01/11 07:45:01;;;;;;;54.40;25.77;;;0.10;59.00;;;;;;5004715;28;20241;-88
2024/01/11 07:47:27;;;;;;;57.63;27.27;;;0.20;58.80;;;;;;4991463;28;20586;-85
2024/01/11 07:49:52;;;;;;;57.17;27.07;;;0.30;58.90;;;;;;4993150;28;20202;-86
2024/01/11 07:52:18;;;;;;;52.03;25.67;;;0.10;58.60;;;;;;4986941;28;20610;-87
2024/01/11 07:54:44;;;;;;;55.90;26.30;;;0.20;58.80;;;;;;4988084;28;20227;-86
2024/01/11 07:57:09;;;;;;;70.50;28.67;;;0.20;58.80;;;;;;4985586;28;20906;-87
2024/01/11 07:59:35;;;;;;;59.63;28.57;;;0.30;58.90;;;;;;4989947;28;20604;-87
2024/01/11 08:02:02;;;;;;;69.17;27.53;;;0.30;58.90;;;;;;4987728;28;20187;-86
2024/01/11 08:04:27;;;;;;;57.10;28.07;;;0.30;59.00;;;;;;4986951;28;20266;-87
2024/01/11 08:06:53;;;;;;;60.73;28.03;;;0.30;59.00;;;;;;4991429;28;20690;-87
2024/01/11 08:09:18;;;;;;;61.70;27.93;;;0.30;59.20;;;;;;5001281;28;20188;-87
2024/01/11 08:11:45;;;;;;;58.30;27.17;;;0.30;59.30;;;;;;4996517;28;20192;-87
2024/01/11 08:14:11;;;;;;;59.40;27.50;;;0.40;59.30;;;;;;4996595;28;20234;-87
2024/01/11 08:16:37;;;;;;;67.33;30.23;;;0.60;59.40;;;;;;5013813;28;20191;-87
2024/01/11 08:19:03;;;;;;;60.30;29.57;;;0.50;59.40;;;;;;5012542;28;20224;-86
2024/01/11 08:21:29;;;;;;;65.97;29.67;;;0.50;59.30;;;;;;5005150;28;20183;-88
2024/01/11 08:23:54;;;;;;;56.63;27.07;;;0.50;59.10;;;;;;4996373;28;20172;-87
2024/01/11 08:26:21;;;;;;;61.53;26.83;;;0.50;59.00;;;;;;5012288;28;20250;-87
2024/01/11 08:28:48;;;;;;;65.07;29.97;;;0.60;59.20;;;;;;5011985;28;20197;-87
2024/01/11 08:31:13;;;;;;;65.47;29.23;;;0.50;59.20;;;;;;4995641;28;20186;-87
2024/01/11 08:33:39;;;;;;;60.20;28.67;;;0.50;59.30;;;;;;5002511;28;20275;-87
2024/01/11 08:36:06;;;;;;;65.23;29.67;;;0.60;59.60;;;;;;4992620;28;20187;-88
2024/01/11 08:38:32;;;;;;;60.43;27.20;;;0.50;59.60;;;;;;5011172;28;20188;-87
2024/01/11 08:41:03;;;;;;;60.83;28.60;;;0.60;59.70;;;;;;4995390;28;20190;-87
2024/01/11 08:43:28;;;;;;;60.90;28.77;;;0.60;59.70;;;;;;4993206;28;20200;-87
2024/01/11 08:45:54;;;;;;;61.73;29.20;;;0.70;59.40;;;;;;5016383;28;20243;-87
2024/01/11 08:48:21;;;;;;;61.70;29.23;;;0.70;59.40;;;;;;5021689;28;20559;-87
2024/01/11 08:50:46;;;;;;;70.83;29.63;;;0.80;59.30;;;;;;4995303;28;20167;-86
2024/01/11 08:53:12;;;;;;;56.83;27.07;;;0.90;59.30;;;;;;5008911;28;20214;-87
2024/01/11 08:55:38;;;;;;;57.37;27.27;;;0.90;59.10;;;;;;4999506;28;20183;-88
2024/01/11 08:58:04;;;;;;;56.00;28.13;;;0.90;59.20;;;;;;5008944;28;20200;-88
2024/01/11 09:00:29;;;;;;;53.83;26.13;;;0.90;59.30;;;;;;4994113;28;20192;-88
2024/01/11 09:02:55;;;;;;;57.07;27.43;;;0.90;59.30;;;;;;4995546;28;20175;-87
2024/01/11 09:05:21;;;;;;;59.80;29.90;;;1.00;59.30;;;;;;5010364;28;20183;-87
2024/01/11 09:07:47;;;;;;;56.20;25.17;;;0.90;59.30;;;;;;4985419;28;20607;-87
2024/01/11 09:10:12;;;;;;;57.97;27.73;;;0.90;59.20;;;;;;5000303;28;20195;-86
2024/01/11 09:12:38;;;;;;;56.43;26.43;;;1.00;59.60;;;;;;5007019;28;20322;-87
2024/01/11 09:15:04;;;;;;;59.63;27.03;;;0.90;59.30;;;;;;5019580;28;20620;-87
2024/01/11 09:17:30;;;;;;;60.93;28.47;;;0.90;59.40;;;;;;5010599;28;20262;-87
2024/01/11 09:19:56;;;;;;;57.57;26.10;;;1.00;59.70;;;;;;4994963;28;20694;-87
2024/01/11 09:22:22;;;;;;;57.80;26.60;;;0.90;60.30;;;;;;4995219;28;20532;-88
2024/01/11 09:24:47;;;;;;;63.97;27.70;;;0.90;60.60;;;;;;4995706;28;20189;-86
2024/01/11 09:27:13;;;;;;;56.83;26.77;;;0.90;61.40;;;;;;4991742;28;20214;-87
2024/01/11 09:29:45;;;;;;;55.40;26.10;;;0.90;61.40;;;;;;5010632;28;20185;-86
2024/01/11 09:32:12;;;;;;;55.77;26.00;;;0.90;61.40;;;;;;5004395;28;20234;-87
2024/01/11 09:34:38;;;;;;;58.00;25.97;;;1.00;61.70;;;;;;5007371;28;20275;-87
2024/01/11 09:37:03;;;;;;;62.27;28.23;;;0.90;61.80;;;;;;4994757;28;20280;-87
2024/01/11 09:39:29;;;;;;;63.37;27.20;;;0.90;62.20;;;;;;4992173;28;20241;-87
2024/01/11 09:42:05;;;;;;;61.03;27.93;;;0.90;62.10;;;;;;4994844;28;20177;-87
2024/01/11 09:44:33;;;;;;;60.60;26.83;;;0.90;62.40;;;;;;5005150;28;20385;-87
2024/01/11 09:47:01;;;;;;;62.27;28.93;;;1.00;62.40;;;;;;4994642;28;20258;-86
2024/01/11 09:49:30;;;;;;;58.80;28.03;;;0.90;62.80;;;;;;4999959;28;20196;-89
2024/01/11 09:51:56;;;;;;;61.83;27.50;;;1.00;63.10;;;;;;5020716;28;20686;-88
2024/01/11 09:54:24;;;;;;;56.80;27.00;;;1.10;62.90;;;;;;5005852;28;20235;-87
2024/01/11 09:56:53;;;;;;;61.90;28.63;;;1.00;62.70;;;;;;4994781;28;20247;-87
2024/01/11 09:59:23;;;;;;;56.23;26.30;;;1.00;62.70;;;;;;5003149;28;20175;-87
2024/01/11 10:01:49;;;;;;;55.63;25.97;;;1.10;63.10;;;;;;4991795;28;20201;-87
2024/01/11 10:04:16;;;;;;;55.47;26.43;;;1.10;63.10;;;;;;4990680;28;20188;-88
2024/01/11 10:06:42;;;;;;;64.50;29.13;;;1.00;62.70;;;;;;4989790;28;20208;-87
2024/01/11 10:09:08;;;;;;;55.53;27.63;;;1.20;63.00;;;;;;5002318;28;20189;-88
2024/01/11 10:11:37;;;;;;;57.93;28.30;;;1.20;62.90;;;;;;5009166;28;20177;-88
2024/01/11 10:14:05;;;;;;;56.57;27.00;;;1.20;62.70;;;;;;4991713;28;20184;-87
2024/01/11 10:16:31;;;;;;;54.13;26.57;;;1.20;62.80;;;;;;4987357;28;20185;-88
2024/01/11 10:18:57;;;;;;;48.83;25.17;;;1.10;62.20;;;;;;4991749;28;20180;-88
2024/01/11 10:21:24;;;;;;;53.23;25.20;;;1.10;62.30;;;;;;5007711;28;20260;-88
2024/01/11 10:23:50;;;;;;;55.30;26.47;;;1.10;62.40;;;;;;4993820;28;20196;-87
2024/01/11 10:26:17;;;;;;;51.63;26.80;;;1.10;62.50;;;;;;4992639;28;20667;-87
2024/01/11 10:28:45;;;;;;;48.67;24.37;;;1.20;62.80;;;;;;4994562;28;20201;-87
2024/01/11 10:31:10;;;;;;;50.03;25.93;;;1.20;63.00;;;;;;4996002;28;20181;-88
2024/01/11 10:33:37;;;;;;;53.83;26.53;;;1.20;62.70;;;;;;4994637;28;20178;-87
2024/01/11 10:36:03;;;;;;;53.60;24.93;;;1.40;63.00;;;;;;4995393;28;20215;-87
2024/01/11 10:38:30;;;;;;;50.03;25.83;;;1.30;63.10;;;;;;5011719;28;20197;-88
2024/01/11 10:41:00;;;;;;;49.57;24.83;;;1.30;62.80;;;;;;5011505;28;20231;-87
2024/01/11 10:43:26;;;;;;;52.07;25.87;;;1.20;62.90;;;;;;5005147;28;20186;-88
2024/01/11 10:45:56;;;;;;;49.97;25.43;;;1.20;63.80;;;;;;5006530;28;20704;-87
2024/01/11 10:48:25;;;;;;;56.43;26.50;;;1.20;63.40;;;;;;4993387;28;20662;-87
2024/01/11 10:50:59;;;;;;;58.07;27.33;;;1.30;62.90;;;;;;5013992;28;20180;-87
2024/01/11 10:53:28;;;;;;;54.37;28.10;;;1.20;62.90;;;;;;4996706;28;20254;-87
2024/01/11 10:55:58;;;;;;;52.80;25.33;;;1.20;63.40;;;;;;5003232;28;20557;-88
2024/01/11 10:58:26;;;;;;;63.93;27.73;;;1.30;63.50;;;;;;5012584;28;20269;-88
2024/01/11 11:00:56;;;;;;;60.37;27.40;;;1.20;62.80;;;;;;5012218;28;20181;-87
2024/01/11 11:03:24;;;;;;;59.43;27.03;;;1.30;62.70;;;;;;4994094;28;20215;-87
2024/01/11 11:05:55;;;;;;;59.37;27.97;;;1.30;62.60;;;;;;4993671;28;21378;-89
2024/01/11 11:08:23;;;;;;;68.70;31.03;;;1.30;62.60;;;;;;4993928;28;20185;-88
2024/01/11 11:10:54;;;;;;;66.50;29.33;;;1.40;62.70;;;;;;4995610;28;20185;-88
2024/01/11 11:13:21;;;;;;;68.20;30.53;;;1.40;62.70;;;;;;4990378;28;20180;-88
2024/01/11 11:15:51;;;;;;;73.10;31.40;;;1.50;62.90;;;;;;4993992;28;20904;-87
2024/01/11 11:18:18;;;;;;;70.80;30.40;;;1.40;62.70;;;;;;5011408;28;20197;-88
2024/01/11 11:20:45;;;;;;;73.77;31.27;;;1.40;62.70;;;;;;4983664;28;20214;-88
2024/01/11 11:23:13;;;;;;;74.50;31.60;;;1.40;62.80;;;;;;4993385;28;20272;-88
2024/01/11 11:25:42;;;;;;;80.37;32.17;;;1.50;63.20;;;;;;4993470;28;20214;-88
2024/01/11 11:28:08;;;;;;;79.17;33.33;;;1.40;63.00;;;;;;4995212;28;20218;-88
2024/01/11 11:30:38;;;;;;;77.30;31.80;;;1.40;63.10;;;;;;5006656;28;20211;-88
2024/01/11 11:33:21;;;;;;;68.97;30.47;;;1.50;63.40;;;;;;5012664;28;20650;-88
2024/01/11 11:35:48;;;;;;;79.40;34.13;;;1.60;63.40;;;;;;4992136;28;20188;-90
2024/01/11 11:38:30;;;;;;;80.87;33.20;;;1.50;63.40;;;;;;5006470;28;20216;-89
2024/01/11 11:41:00;;;;;;;82.27;33.43;;;1.50;63.20;;;;;;5003838;28;20196;-88
2024/01/11 11:43:29;;;;;;;78.77;32.20;;;1.60;63.40;;;;;;4992904;28;20626;-88
2024/01/11 11:45:56;;;;;;;78.73;34.13;;;1.50;63.30;;;;;;5008686;28;20263;-88
2024/01/11 11:48:32;;;;;;;84.30;33.07;;;1.60;63.40;;;;;;5008426;28;20200;-89
2024/01/11 11:51:15;;;;;;;81.17;33.00;;;1.60;63.40;;;;;;4993855;28;20188;-88
2024/01/11 11:53:42;;;;;;;86.43;34.90;;;1.50;63.50;;;;;;4994052;28;20180;-89
2024/01/11 11:56:12;;;;;;;82.73;34.10;;;1.60;63.80;;;;;;5010427;28;20180;-89
2024/01/11 11:58:42;;;;;;;86.20;32.87;;;1.60;64.10;;;;;;5012827;28;20266;-89
2024/01/11 12:01:08;;;;;;;95.80;35.33;;;1.60;64.70;;;;;;4989453;28;20177;-89
2024/01/11 12:03:40;;;;;;;94.23;35.63;;;1.50;64.30;;;;;;5006767;28;20178;-89
2024/01/11 12:06:08;;;;;;;83.07;34.17;;;1.50;64.40;;;;;;5010313;28;20186;-88
2024/01/11 12:08:35;;;;;;;78.43;32.90;;;1.50;64.30;;;;;;4993915;28;20267;-89
2024/01/11 12:11:02;;;;;;;92.40;34.70;;;1.40;64.30;;;;;;4992960;28;20180;-89
2024/01/11 12:13:28;;;;;;;89.70;35.50;;;1.40;64.80;;;;;;4994337;28;20193;-89
2024/01/11 12:15:55;;;;;;;102.90;37.07;;;1.40;64.80;;;;;;5010352;28;20181;-89
2024/01/11 12:18:20;;;;;;;81.23;33.23;;;1.40;65.20;;;;;;4991231;28;20181;-89
2024/01/11 12:20:46;;;;;;;96.00;35.63;;;1.50;66.00;;;;;;4988934;28;20287;-89
2024/01/11 12:23:13;;;;;;;91.20;37.33;;;1.60;65.70;;;;;;4993220;28;20186;-89
2024/01/11 12:25:40;;;;;;;84.40;36.10;;;1.70;65.80;;;;;;5009013;28;20189;-89
2024/01/11 12:28:06;;;;;;;84.17;34.80;;;1.60;65.80;;;;;;5009164;28;20579;-88
2024/01/11 12:30:32;;;;;;;88.27;36.53;;;1.60;66.00;;;;;;5007474;28;20264;-89